Terminal Aerodrome Forecast
Issued by NWS San Angelo, TX

Home | Current Version | Previous Version | Text Only | Print | Product List | Glossary On
Versions: 1 2 3 4 5 6 7 8 9 10 11 12 13 14 15 16 17 18 19 20
000
FTUS44 KSJT 252049 AAA
TAFABI
TAF AMD
KABI 252049Z 2521/2618 16011KT P6SM FEW060
     FM260000 15010KT P6SM SKC
     FM261200 18010KT P6SM SCT035=

USA.gov is the U.S. government's official web portal to all federal, state and local government web resources and services.